Pagrindinis puslapis
METAR-TAF:

METAR-TAF

Oro uostai :

Cayo Coco, Kuba

platuma: 22-27-40N, ilguma: 078-19-42W, Aukštis: 4 m

Dabartinis oras

Ataskaita buvo paskelbta 1 valandą ir 19 minutes, ne 10:50 UTC
Vėjas 4 kt iš Pietų
Temperatūra 26°C
Drėgmė 94%
Slėgis 1012 hPa
Matomumas: 9000 m
Mažai debesys ne aukštis 2000 ft

METAR: MUCC 281050Z 19004KT 9000 FEW020 26/25 Q1012

Laikas: 08:09 (12:09 UTC)

Prognozė

Ataskaita buvo paskelbta 1 valandą ir 9 minutes, ne 11:00 UTC
Prognozė galioja nuo 28 metu 12 UTC su 29 metu 12 UTC
Vėjas 3 kt nuo kintamojo kryptimis
Matomumas: 9000 m
Išsisklaidę debesys ne aukštis 2000 ft
Tapsmas
nuo 28 metu 15 UTC su 28 metu 17 UTC
Vėjas 10 kt iš Pietų/Pietvakarių

TAF: MUCC 281100Z 2812/2912 VRB03KT 9000 SCT020 BECMG 2815/2817 20010KT

Orai ataskaitas ir orų prognozės (METAR, TAF).

turimą stotys yra geltonos ir raudonos taškus žemėlapyje.

Perkelti pele per norėdami pamatyti stoties vardą.

Tada spustelėkite, norėdami matyti oro stebėjimo ir prognozės.

Norėdami pakeisti žemėlapį: spustelėkite ant žalios mygtukų su juodo kryžiaus žemyn,; žalią mygtuką su brūkšneliu, jei norite nutolinti; arba žalių rodyklių gretimoms žemėlapius.


METAR-TAF: